Time;durP1;ratioP1;P1;durP2;ratioP2;P2;SDS_P1;SDS_P2;PMS_P1;PMS_P2;Temp;Humidity;BMP_temperature;BMP_pressure;BME280_temperature;BME280_humidity;BME280_pressure;Samples;Min_cycle;Max_cycle;Signal;HPM_P1;HPM_P2
2022/03/15 00:00:19;;;;;;;19.90;7.88;;;6.20;99.90;;;;;;5014261;28;20042;-81
2022/03/15 00:02:45;;;;;;;15.52;6.90;;;5.00;99.90;;;;;;5014233;28;20045;-82
2022/03/15 00:05:11;;;;;;;20.80;8.15;;;6.30;99.90;;;;;;4981571;28;20048;-81
2022/03/15 00:07:36;;;;;;;20.73;8.25;;;5.10;99.90;;;;;;5017287;28;20124;-81
2022/03/15 00:10:03;;;;;;;24.10;9.40;;;5.00;99.90;;;;;;5001071;28;20037;-82
2022/03/15 00:12:29;;;;;;;25.90;9.15;;;5.00;99.90;;;;;;5000809;28;20120;-82
2022/03/15 00:14:55;;;;;;;18.48;7.93;;;5.20;99.90;;;;;;5000990;28;20125;-81
2022/03/15 00:17:23;;;;;;;22.38;8.27;;;5.00;99.90;;;;;;5022995;28;20036;-81
2022/03/15 00:19:49;;;;;;;23.52;9.63;;;5.00;99.90;;;;;;5017217;28;20046;-80
2022/03/15 00:22:15;;;;;;;22.05;8.98;;;5.00;99.90;;;;;;5016930;28;20464;-80
2022/03/15 00:24:42;;;;;;;21.58;8.88;;;5.30;99.90;;;;;;5017192;28;20088;-80
2022/03/15 00:27:09;;;;;;;22.13;9.10;;;5.00;99.90;;;;;;5011859;28;20107;-81
2022/03/15 00:29:36;;;;;;;19.52;8.63;;;5.30;99.90;;;;;;5029057;28;20046;-81
2022/03/15 00:32:01;;;;;;;16.65;8.00;;;6.40;99.90;;;;;;5000740;28;20053;-80
2022/03/15 00:34:27;;;;;;;19.25;8.80;;;4.90;99.90;;;;;;5009368;28;20492;-81
2022/03/15 00:36:53;;;;;;;18.20;8.57;;;6.00;99.90;;;;;;4994257;28;20033;-81
2022/03/15 00:39:18;;;;;;;20.40;8.80;;;5.00;99.90;;;;;;4997200;28;20042;-81
2022/03/15 00:41:44;;;;;;;20.13;8.60;;;5.00;99.90;;;;;;5013662;28;20072;-81
2022/03/15 00:44:10;;;;;;;20.15;8.55;;;5.00;99.90;;;;;;5000295;28;20041;-81
2022/03/15 00:46:35;;;;;;;19.07;8.83;;;4.90;99.90;;;;;;5005552;28;20045;-81
2022/03/15 00:49:01;;;;;;;19.90;8.20;;;4.90;99.90;;;;;;5004883;28;20787;-81
2022/03/15 00:51:28;;;;;;;16.63;9.07;;;4.90;99.90;;;;;;5019829;28;20079;-81
2022/03/15 00:53:53;;;;;;;;;;;4.90;99.90;;;;;;5034240;28;20045;-81
2022/03/15 00:56:19;;;;;;;19.58;8.63;;;5.00;99.90;;;;;;5016263;28;19924;-81
2022/03/15 00:58:45;;;;;;;20.73;9.00;;;5.80;99.90;;;;;;4999806;28;20514;-81
2022/03/15 01:01:11;;;;;;;23.10;9.65;;;4.80;99.90;;;;;;5000030;28;20465;-81
2022/03/15 01:03:36;;;;;;;23.40;9.88;;;4.80;99.90;;;;;;5026637;28;20044;-81
2022/03/15 01:06:02;;;;;;;19.50;9.40;;;4.80;99.90;;;;;;5021983;28;20429;-81
2022/03/15 01:08:28;;;;;;;20.20;9.25;;;4.80;99.90;;;;;;5016306;28;20323;-81
2022/03/15 01:10:53;;;;;;;20.07;9.47;;;4.80;99.90;;;;;;4967489;28;20049;-82
2022/03/15 01:13:19;;;;;;;18.85;9.10;;;5.30;99.90;;;;;;5016091;28;20532;-81
2022/03/15 01:15:45;;;;;;;18.10;8.80;;;4.80;99.90;;;;;;4983653;28;20051;-81
2022/03/15 01:18:12;;;;;;;25.60;9.38;;;4.80;99.90;;;;;;5016025;28;20054;-81
2022/03/15 01:20:40;;;;;;;23.17;9.82;;;5.30;99.90;;;;;;5018862;28;20044;-81
2022/03/15 01:23:06;;;;;;;22.23;9.23;;;5.00;99.90;;;;;;5019204;28;20123;-81
2022/03/15 01:25:32;;;;;;;16.88;9.05;;;5.00;99.90;;;;;;5035501;28;20036;-81
2022/03/15 01:27:57;;;;;;;22.08;9.55;;;4.60;99.90;;;;;;5018982;28;20123;-81
2022/03/15 01:30:23;;;;;;;21.90;9.83;;;5.00;99.90;;;;;;5012586;28;20095;-81
2022/03/15 01:32:49;;;;;;;18.80;9.25;;;6.10;99.90;;;;;;4996496;28;20046;-82
2022/03/15 01:35:15;;;;;;;25.80;10.35;;;6.00;99.90;;;;;;4999616;28;20053;-82
2022/03/15 01:37:41;;;;;;;29.30;11.10;;;4.60;99.90;;;;;;4982834;28;20038;-82
2022/03/15 01:40:07;;;;;;;18.90;9.75;;;4.60;99.90;;;;;;5015713;28;20049;-82
2022/03/15 01:42:33;;;;;;;24.35;9.80;;;4.60;99.90;;;;;;5015657;28;20045;-82
2022/03/15 01:45:02;;;;;;;26.25;11.50;;;4.60;99.90;;;;;;4999274;28;20477;-82
2022/03/15 01:47:28;;;;;;;24.30;11.20;;;4.90;99.90;;;;;;5015822;28;20607;-81
2022/03/15 01:49:54;;;;;;;21.08;11.38;;;4.50;99.90;;;;;;4998841;28;20131;-81
2022/03/15 01:52:21;;;;;;;27.67;12.85;;;4.50;99.90;;;;;;5015587;28;20049;-81
2022/03/15 01:54:47;;;;;;;27.63;13.23;;;4.80;99.90;;;;;;5015754;28;20081;-81
2022/03/15 01:57:13;;;;;;;27.42;13.23;;;5.20;99.90;;;;;;4999115;28;20409;-81
2022/03/15 01:59:39;;;;;;;26.05;12.70;;;4.50;99.90;;;;;;5015881;28;20051;-81
2022/03/15 02:02:06;;;;;;;21.30;12.65;;;5.70;99.90;;;;;;4999180;28;20120;-81
2022/03/15 02:04:32;;;;;;;29.80;14.07;;;5.00;99.90;;;;;;5015102;28;20055;-81
2022/03/15 02:07:10;;;;;;;27.05;13.55;;;4.50;99.90;;;;;;4999042;28;20049;-81
2022/03/15 02:09:36;;;;;;;27.35;13.68;;;4.40;99.90;;;;;;5015571;28;20120;-81
2022/03/15 02:12:03;;;;;;;27.42;14.48;;;4.40;99.90;;;;;;5019937;28;20079;-81
2022/03/15 02:14:28;;;;;;;;;;;4.40;99.90;;;;;;5016020;28;20045;-81
2022/03/15 02:16:55;;;;;;;28.02;15.23;;;4.90;99.90;;;;;;5002117;28;19920;-81
2022/03/15 02:19:22;;;;;;;28.08;15.00;;;5.00;99.90;;;;;;5035368;28;20400;-81
2022/03/15 02:21:48;;;;;;;36.08;16.83;;;4.40;99.90;;;;;;5014116;28;20432;-80
2022/03/15 02:24:14;;;;;;;30.42;15.75;;;4.50;99.90;;;;;;5013786;28;20448;-81
2022/03/15 02:26:40;;;;;;;30.77;16.13;;;5.80;99.90;;;;;;5014933;28;20124;-81
2022/03/15 02:29:05;;;;;;;29.88;16.35;;;4.40;99.90;;;;;;5014800;28;20065;-81
2022/03/15 02:31:31;;;;;;;29.20;16.63;;;4.40;99.90;;;;;;4998838;28;20077;-81
2022/03/15 02:33:57;;;;;;;26.47;15.97;;;4.50;99.90;;;;;;4999075;28;20835;-80
2022/03/15 02:36:23;;;;;;;29.40;16.73;;;4.50;99.90;;;;;;5014981;28;20302;-82
2022/03/15 02:38:48;;;;;;;27.70;16.50;;;4.50;99.90;;;;;;4992166;28;20041;-80
2022/03/15 02:41:15;;;;;;;37.53;17.48;;;5.60;99.90;;;;;;5015368;28;20033;-81
2022/03/15 02:43:41;;;;;;;;;;;6.00;99.90;;;;;;4999210;28;20412;-81
2022/03/15 02:46:07;;;;;;;28.45;15.90;;;4.60;99.90;;;;;;5014610;28;20373;-81
2022/03/15 02:48:34;;;;;;;27.58;16.25;;;5.70;99.90;;;;;;5000562;28;20045;-81
2022/03/15 02:51:06;;;;;;;30.27;15.65;;;5.40;99.90;;;;;;5018498;28;20067;-81
2022/03/15 02:53:32;;;;;;;28.80;14.63;;;4.60;99.90;;;;;;5018659;28;20090;-82
2022/03/15 02:55:58;;;;;;;33.45;15.45;;;5.20;99.90;;;;;;5014939;28;20154;-81
2022/03/15 02:58:24;;;;;;;31.05;15.23;;;4.70;99.90;;;;;;5014999;28;20042;-81
2022/03/15 03:00:49;;;;;;;25.95;14.82;;;4.70;99.90;;;;;;4998657;28;20171;-81
2022/03/15 03:03:15;;;;;;;28.93;15.30;;;4.80;99.90;;;;;;5003029;28;20080;-81
2022/03/15 03:05:41;;;;;;;33.60;15.77;;;4.80;99.90;;;;;;5018335;28;20291;-81
2022/03/15 03:08:07;;;;;;;33.53;16.67;;;5.30;99.90;;;;;;5002134;28;20135;-81
2022/03/15 03:10:33;;;;;;;24.08;14.65;;;5.20;99.90;;;;;;5002125;28;20129;-82
2022/03/15 03:12:59;;;;;;;30.23;14.30;;;5.60;99.90;;;;;;4969946;28;20053;-81
2022/03/15 03:15:26;;;;;;;;;;;6.10;99.90;;;;;;5018806;28;20539;-81
2022/03/15 03:17:52;;;;;;;26.85;14.13;;;5.80;99.90;;;;;;5001825;28;20325;-81
2022/03/15 03:20:21;;;;;;;23.70;13.73;;;4.90;99.90;;;;;;5019414;28;20041;-81
2022/03/15 03:22:50;;;;;;;27.08;14.73;;;6.50;99.90;;;;;;5038019;28;20043;-81
2022/03/15 03:25:18;;;;;;;24.75;13.65;;;5.00;99.90;;;;;;5024745;28;20075;-81
2022/03/15 03:27:46;;;;;;;26.38;13.85;;;5.30;99.90;;;;;;5002043;28;20456;-81
2022/03/15 03:30:13;;;;;;;28.23;13.93;;;5.00;99.90;;;;;;5018256;28;20080;-81
2022/03/15 03:32:40;;;;;;;26.60;13.85;;;5.10;99.90;;;;;;5018552;28;20072;-81
2022/03/15 03:35:06;;;;;;;26.13;13.73;;;5.60;99.90;;;;;;5001961;28;20045;-81
2022/03/15 03:37:35;;;;;;;28.40;13.70;;;5.10;99.90;;;;;;5018052;28;20040;-81
2022/03/15 03:40:07;;;;;;;24.77;12.93;;;5.40;99.90;;;;;;5018044;28;20485;-81
2022/03/15 03:42:35;;;;;;;25.27;13.00;;;5.50;99.90;;;;;;5001602;28;20065;-82
2022/03/15 03:45:01;;;;;;;28.38;13.02;;;5.90;99.90;;;;;;5018092;28;20037;-81
2022/03/15 03:47:26;;;;;;;22.52;12.38;;;5.20;99.90;;;;;;5017636;28;20038;-81
2022/03/15 03:49:52;;;;;;;25.30;12.00;;;5.20;99.90;;;;;;5001156;28;20053;-82
2022/03/15 03:52:18;;;;;;;27.13;12.70;;;5.20;99.90;;;;;;5017510;28;20461;-82
2022/03/15 03:54:44;;;;;;;32.08;13.55;;;5.50;99.90;;;;;;5017694;28;20120;-81
2022/03/15 03:57:10;;;;;;;22.63;11.85;;;6.30;99.90;;;;;;5017451;28;20120;-81
2022/03/15 03:59:36;;;;;;;24.75;12.32;;;5.60;99.90;;;;;;5017494;28;20103;-81
2022/03/15 04:02:02;;;;;;;25.57;12.20;;;6.40;99.90;;;;;;5017861;28;20042;-81
2022/03/15 04:04:28;;;;;;;27.25;12.30;;;5.30;99.90;;;;;;5001032;28;20041;-81
2022/03/15 04:06:55;;;;;;;26.00;12.38;;;5.70;99.90;;;;;;5001201;28;20058;-81
2022/03/15 04:09:22;;;;;;;26.42;13.35;;;6.30;99.90;;;;;;5019803;28;20073;-82
2022/03/15 04:11:49;;;;;;;28.02;13.07;;;5.80;99.90;;;;;;5020382;28;20045;-82
2022/03/15 04:14:15;;;;;;;25.75;13.15;;;5.50;99.90;;;;;;5023751;28;20513;-82
2022/03/15 04:16:42;;;;;;;25.00;12.45;;;5.60;99.90;;;;;;5016912;28;20116;-82
2022/03/15 04:19:08;;;;;;;27.95;13.15;;;5.60;99.90;;;;;;5017379;28;20125;-82
2022/03/15 04:21:34;;;;;;;26.00;13.07;;;5.80;99.90;;;;;;5000797;28;20091;-83
2022/03/15 04:24:00;;;;;;;29.00;13.95;;;5.60;99.90;;;;;;5016934;28;20048;-81
2022/03/15 04:26:26;;;;;;;30.52;14.13;;;5.70;99.90;;;;;;5017140;28;20400;-81
2022/03/15 04:28:53;;;;;;;23.20;13.43;;;6.50;99.90;;;;;;4984486;28;20489;-81
2022/03/15 04:31:21;;;;;;;26.10;13.38;;;5.70;99.90;;;;;;5016634;28;20039;-81
2022/03/15 04:33:47;;;;;;;27.42;13.63;;;5.70;99.90;;;;;;5017489;28;20501;-81
2022/03/15 04:36:12;;;;;;;26.60;12.27;;;5.80;99.90;;;;;;5016950;28;20071;-81
2022/03/15 04:38:38;;;;;;;24.13;11.38;;;6.00;99.90;;;;;;5000430;28;20049;-81
2022/03/15 04:41:07;;;;;;;22.77;12.80;;;5.80;99.90;;;;;;5000771;28;20452;-81
2022/03/15 04:43:33;;;;;;;26.33;12.60;;;5.80;99.90;;;;;;5016955;28;20781;-81
2022/03/15 04:45:59;;;;;;;;;;;7.00;99.90;;;;;;5016655;28;20033;-81
2022/03/15 04:48:26;;;;;;;24.48;12.18;;;5.80;99.90;;;;;;5000595;28;19924;-82
2022/03/15 04:50:52;;;;;;;;;;;5.80;99.90;;;;;;5000861;28;20445;-81
2022/03/15 04:53:18;;;;;;;30.75;11.88;;;6.10;99.90;;;;;;5016562;28;19990;-82
2022/03/15 04:55:45;;;;;;;21.50;11.20;;;5.70;99.90;;;;;;5000142;28;20053;-82
2022/03/15 04:58:11;;;;;;;22.02;11.35;;;6.50;99.90;;;;;;5016297;28;20056;-82
2022/03/15 05:00:37;;;;;;;20.92;11.75;;;6.10;99.90;;;;;;5016218;28;20497;-82
2022/03/15 05:03:03;;;;;;;26.33;11.55;;;5.70;99.90;;;;;;5016330;28;20037;-81
2022/03/15 05:05:28;;;;;;;28.60;12.13;;;6.30;99.90;;;;;;5016204;28;20464;-81
2022/03/15 05:07:54;;;;;;;23.30;11.70;;;5.60;99.90;;;;;;5016228;28;20092;-82
2022/03/15 05:13:04;;;;;;;26.15;13.05;;;5.80;99.90;;;;;;5016412;28;20842;-82
2022/03/15 05:15:30;;;;;;;24.67;12.35;;;5.60;99.90;;;;;;4983696;28;20041;-81
2022/03/15 05:17:56;;;;;;;28.23;13.60;;;5.60;99.90;;;;;;4983656;28;20068;-81
2022/03/15 05:20:23;;;;;;;26.92;13.95;;;5.70;99.90;;;;;;4983613;28;20405;-80
2022/03/15 05:22:48;;;;;;;;;;;6.20;99.90;;;;;;4996562;28;20050;-81
2022/03/15 05:25:14;;;;;;;28.77;13.90;;;5.90;99.90;;;;;;4995977;28;20384;-82
2022/03/15 05:27:41;;;;;;;32.15;14.15;;;6.20;99.90;;;;;;5012837;28;20037;-83
2022/03/15 05:30:08;;;;;;;30.88;14.13;;;5.70;99.90;;;;;;4999362;28;20092;-85
2022/03/15 05:32:33;;;;;;;36.35;15.20;;;5.60;99.90;;;;;;5016738;28;20128;-80
2022/03/15 05:35:01;;;;;;;29.45;14.73;;;5.70;99.90;;;;;;5017328;28;20112;-79
2022/03/15 05:37:27;;;;;;;30.00;14.60;;;5.70;99.90;;;;;;4998406;28;20114;-80
2022/03/15 05:39:53;;;;;;;30.90;15.68;;;6.80;99.90;;;;;;5015851;28;20543;-81
2022/03/15 05:42:19;;;;;;;34.65;16.77;;;5.70;99.90;;;;;;4998772;28;20124;-79
2022/03/15 05:44:45;;;;;;;28.98;15.32;;;5.80;99.90;;;;;;5013701;28;20060;-79
2022/03/15 05:47:11;;;;;;;34.42;16.23;;;5.70;99.90;;;;;;5006501;28;20037;-79
2022/03/15 05:49:37;;;;;;;33.50;16.57;;;5.70;99.90;;;;;;5013991;28;20055;-80
2022/03/15 05:52:03;;;;;;;32.25;17.08;;;5.70;99.90;;;;;;5015053;28;20284;-80
2022/03/15 05:54:30;;;;;;;31.92;15.73;;;5.70;99.90;;;;;;5017575;28;20044;-79
2022/03/15 05:56:56;;;;;;;35.60;16.88;;;5.70;99.90;;;;;;5016589;28;20034;-79
2022/03/15 05:59:22;;;;;;;31.15;16.38;;;5.60;99.90;;;;;;5015305;28;20053;-80
2022/03/15 06:01:47;;;;;;;37.70;16.40;;;5.80;99.90;;;;;;5014536;28;20371;-80
2022/03/15 06:04:13;;;;;;;31.58;16.75;;;5.70;99.90;;;;;;5014351;28;20406;-79
2022/03/15 06:06:39;;;;;;;43.42;18.23;;;5.70;99.90;;;;;;5015058;28;20509;-79
2022/03/15 06:09:05;;;;;;;30.50;16.70;;;5.60;99.90;;;;;;5014678;28;20061;-79
2022/03/15 06:11:32;;;;;;;33.28;16.83;;;5.70;99.90;;;;;;5014280;28;20320;-80
2022/03/15 06:13:58;;;;;;;39.78;17.35;;;5.80;99.90;;;;;;5014640;28;20084;-79
2022/03/15 06:16:24;;;;;;;;;;;5.70;99.90;;;;;;5017265;28;20041;-79
2022/03/15 06:18:50;;;;;;;33.42;16.02;;;6.40;99.90;;;;;;5017234;28;19921;-79
2022/03/15 06:21:17;;;;;;;35.95;17.58;;;6.30;99.90;;;;;;4999362;28;20075;-79
2022/03/15 06:23:42;;;;;;;;;;;5.70;99.90;;;;;;5015316;28;20091;-79
2022/03/15 06:26:09;;;;;;;36.72;17.45;;;5.70;99.90;;;;;;5014968;28;19921;-79
2022/03/15 06:28:36;;;;;;;32.00;17.40;;;5.70;99.90;;;;;;5014387;28;20497;-79
2022/03/15 06:31:02;;;;;;;;;;;5.70;99.90;;;;;;5014561;28;20159;-79
2022/03/15 06:33:27;;;;;;;32.30;17.45;;;5.70;99.90;;;;;;5014891;28;20384;-79
2022/03/15 06:35:53;;;;;;;33.67;17.15;;;5.70;99.90;;;;;;5016148;28;20049;-79
2022/03/15 06:38:19;;;;;;;31.33;17.88;;;5.70;99.90;;;;;;5018086;28;20132;-79
2022/03/15 06:40:46;;;;;;;35.42;18.95;;;5.70;99.90;;;;;;5007697;28;20129;-80
2022/03/15 06:43:13;;;;;;;41.28;20.35;;;5.70;99.90;;;;;;5018436;28;20052;-79
2022/03/15 06:45:41;;;;;;;41.90;20.05;;;5.80;99.90;;;;;;5013013;28;20079;-79
2022/03/15 06:48:08;;;;;;;40.17;18.90;;;6.30;99.90;;;;;;5028296;28;20042;-79
2022/03/15 06:50:34;;;;;;;;;;;6.20;99.90;;;;;;5006467;28;20037;-79
2022/03/15 06:52:59;;;;;;;38.90;19.13;;;5.80;99.90;;;;;;5017721;28;19916;-79
2022/03/15 06:55:26;;;;;;;40.23;19.20;;;5.80;99.90;;;;;;5018202;28;20037;-79
2022/03/15 06:57:52;;;;;;;;;;;5.80;99.90;;;;;;5018421;28;20422;-78
2022/03/15 07:00:17;;;;;;;49.00;19.60;;;5.80;99.90;;;;;;5017984;28;20008;-78
2022/03/15 07:02:43;;;;;;;41.40;19.95;;;5.90;99.90;;;;;;5017972;28;20033;-79
2022/03/15 07:05:09;;;;;;;40.13;19.70;;;6.40;99.90;;;;;;5018012;28;20083;-79
2022/03/15 07:07:36;;;;;;;41.80;19.80;;;5.90;99.90;;;;;;5029574;28;20412;-79
2022/03/15 07:10:05;;;;;;;42.88;20.05;;;6.10;99.90;;;;;;5001679;28;20095;-79
2022/03/15 07:12:34;;;;;;;43.33;20.77;;;6.00;99.90;;;;;;5010405;28;20076;-79
2022/03/15 07:15:00;;;;;;;41.97;20.23;;;6.00;99.90;;;;;;4998871;28;20036;-78
2022/03/15 07:17:27;;;;;;;38.20;19.05;;;6.10;99.90;;;;;;5017910;28;20049;-78
2022/03/15 07:19:53;;;;;;;36.35;20.33;;;6.10;99.90;;;;;;5018833;28;20540;-79
2022/03/15 07:22:18;;;;;;;38.70;19.40;;;6.20;99.90;;;;;;5021064;28;20041;-79
2022/03/15 07:24:44;;;;;;;42.00;20.17;;;6.20;99.90;;;;;;5016919;28;20052;-79
2022/03/15 07:27:10;;;;;;;36.60;19.13;;;6.30;99.90;;;;;;5017389;28;20683;-79
2022/03/15 07:29:35;;;;;;;41.67;19.47;;;6.20;99.90;;;;;;5037387;28;20484;-79
2022/03/15 07:32:01;;;;;;;41.85;19.50;;;6.20;99.90;;;;;;5020638;28;20179;-78
2022/03/15 07:34:27;;;;;;;41.30;19.58;;;6.30;99.90;;;;;;5000943;28;20037;-79
2022/03/15 07:36:53;;;;;;;41.05;19.60;;;6.30;99.90;;;;;;5017108;28;20440;-79
2022/03/15 07:39:18;;;;;;;42.60;20.67;;;6.30;99.90;;;;;;5018536;28;20049;-79
2022/03/15 07:41:46;;;;;;;40.80;19.15;;;6.30;99.90;;;;;;5024814;28;20791;-79
2022/03/15 07:44:12;;;;;;;39.17;18.70;;;6.30;99.90;;;;;;5016283;28;20042;-79
2022/03/15 07:46:40;;;;;;;43.05;19.05;;;6.70;99.90;;;;;;5015838;28;20088;-79
2022/03/15 07:49:06;;;;;;;37.80;18.27;;;6.40;99.90;;;;;;5016609;28;20037;-79
2022/03/15 07:51:34;;;;;;;46.35;20.10;;;6.40;99.90;;;;;;5016762;28;20083;-79
2022/03/15 07:54:00;;;;;;;46.65;20.33;;;6.40;99.90;;;;;;5017141;28;20053;-79
2022/03/15 07:56:25;;;;;;;38.17;19.17;;;7.00;99.90;;;;;;5016797;28;20098;-79
2022/03/15 07:58:51;;;;;;;36.17;18.45;;;6.50;99.90;;;;;;5016491;28;20493;-79
2022/03/15 08:01:17;;;;;;;38.60;19.75;;;6.50;99.90;;;;;;4998958;28;20057;-79
2022/03/15 08:03:43;;;;;;;38.80;18.42;;;6.50;99.90;;;;;;5000177;28;20115;-79
2022/03/15 08:06:08;;;;;;;33.93;18.40;;;6.70;99.90;;;;;;5016467;28;20046;-79
2022/03/15 08:08:34;;;;;;;38.90;18.90;;;6.60;99.90;;;;;;5017151;28;20053;-79
2022/03/15 08:11:06;;;;;;;42.45;18.13;;;6.60;99.90;;;;;;5018575;28;20124;-79
2022/03/15 08:13:34;;;;;;;38.10;19.35;;;6.70;99.90;;;;;;5028391;28;20075;-79
2022/03/15 08:16:01;;;;;;;36.20;19.40;;;6.80;99.90;;;;;;5002154;28;20095;-79
2022/03/15 08:18:27;;;;;;;36.22;18.50;;;6.70;99.90;;;;;;5016887;28;20058;-80
2022/03/15 08:20:53;;;;;;;38.05;18.10;;;6.70;99.90;;;;;;5016134;28;20112;-80
2022/03/15 08:23:20;;;;;;;37.67;18.40;;;6.80;99.90;;;;;;5016464;28;20043;-80
2022/03/15 08:25:46;;;;;;;39.05;18.10;;;6.80;99.90;;;;;;5016143;28;20059;-80
2022/03/15 08:28:12;;;;;;;33.90;17.30;;;6.90;99.90;;;;;;5016692;28;20116;-80
2022/03/15 08:30:37;;;;;;;30.73;18.23;;;6.90;99.90;;;;;;5016636;28;20073;-80
2022/03/15 08:33:03;;;;;;;34.67;18.90;;;6.90;99.90;;;;;;4988889;28;20303;-80
2022/03/15 08:35:29;;;;;;;36.55;18.38;;;7.00;99.90;;;;;;5016286;28;20287;-80
2022/03/15 08:37:55;;;;;;;31.90;18.00;;;7.00;99.90;;;;;;5016092;28;20037;-80
2022/03/15 08:40:22;;;;;;;38.03;18.43;;;7.00;99.90;;;;;;5016311;28;20041;-80
2022/03/15 08:42:48;;;;;;;38.22;18.33;;;7.10;99.90;;;;;;5015846;28;20508;-79
2022/03/15 08:45:14;;;;;;;35.97;18.52;;;7.10;99.90;;;;;;5008024;28;20068;-79
2022/03/15 08:47:40;;;;;;;35.50;18.67;;;7.90;99.90;;;;;;5021770;28;20076;-79
2022/03/15 08:50:07;;;;;;;33.65;18.85;;;7.20;99.90;;;;;;5015794;28;20092;-79
2022/03/15 08:52:33;;;;;;;39.33;18.73;;;7.20;99.90;;;;;;5016009;28;20342;-79
2022/03/15 08:54:59;;;;;;;34.97;18.73;;;7.30;99.90;;;;;;5042595;28;20047;-79
2022/03/15 08:57:25;;;;;;;34.80;18.48;;;7.30;99.90;;;;;;5018336;28;20041;-79
2022/03/15 08:59:51;;;;;;;36.63;18.45;;;7.40;99.90;;;;;;5013685;28;20519;-80
2022/03/15 09:02:17;;;;;;;33.73;19.43;;;7.40;99.90;;;;;;4983031;28;20485;-80
2022/03/15 09:04:46;;;;;;;38.63;19.00;;;7.40;99.90;;;;;;5000434;28;20320;-79
2022/03/15 09:07:12;;;;;;;31.52;18.77;;;7.50;99.90;;;;;;5031992;28;20111;-80
2022/03/15 09:09:37;;;;;;;32.33;18.33;;;8.20;99.90;;;;;;5015292;28;20041;-80
2022/03/15 09:12:03;;;;;;;35.60;19.10;;;7.60;99.90;;;;;;5015475;28;20048;-80
2022/03/15 09:14:30;;;;;;;32.80;20.00;;;7.70;99.90;;;;;;5015390;28;20288;-80
2022/03/15 09:16:57;;;;;;;31.08;18.70;;;7.70;99.90;;;;;;5014791;28;20045;-80
2022/03/15 09:19:23;;;;;;;31.73;18.60;;;7.80;99.90;;;;;;5015105;28;20048;-80
2022/03/15 09:21:49;;;;;;;34.35;19.33;;;7.80;99.90;;;;;;5015204;28;20037;-80
2022/03/15 09:24:15;;;;;;;33.00;18.90;;;7.90;99.90;;;;;;5016823;28;20044;-80
2022/03/15 09:26:42;;;;;;;30.80;18.33;;;8.50;99.90;;;;;;5035249;28;20499;-80
2022/03/15 09:29:12;;;;;;;30.98;19.23;;;8.00;99.90;;;;;;5015694;28;20283;-79
2022/03/15 09:31:38;;;;;;;31.02;17.70;;;8.00;99.90;;;;;;5030313;28;20120;-80
2022/03/15 09:34:05;;;;;;;35.67;20.55;;;8.10;99.90;;;;;;4998532;28;20041;-80
2022/03/15 09:36:31;;;;;;;;;;;8.10;99.90;;;;;;5014581;28;20085;-80
2022/03/15 09:38:57;;;;;;;32.05;18.45;;;8.20;99.90;;;;;;5014982;28;19964;-80
2022/03/15 09:41:25;;;;;;;33.00;18.60;;;8.20;99.90;;;;;;5014654;28;20069;-80
2022/03/15 09:43:53;;;;;;;30.67;18.48;;;8.30;99.90;;;;;;5016540;28;20041;-80
2022/03/15 09:46:21;;;;;;;33.63;18.45;;;8.30;99.90;;;;;;5017716;28;20041;-80
2022/03/15 09:48:51;;;;;;;33.92;19.33;;;8.40;99.90;;;;;;5014789;28;20482;-80
2022/03/15 09:51:18;;;;;;;35.70;18.67;;;8.40;99.90;;;;;;4998250;28;20045;-80
2022/03/15 09:53:46;;;;;;;29.27;17.08;;;8.50;99.90;;;;;;5014699;28;20073;-80
2022/03/15 09:56:16;;;;;;;33.83;18.40;;;8.50;99.90;;;;;;4988763;28;20038;-80
2022/03/15 09:58:42;;;;;;;33.45;18.45;;;8.60;99.90;;;;;;5007663;28;20073;-80
2022/03/15 10:01:17;;;;;;;29.23;17.85;;;8.60;99.90;;;;;;5014328;28;20045;-80
2022/03/15 10:03:43;;;;;;;33.65;17.40;;;8.80;99.90;;;;;;5003075;28;20037;-80
2022/03/15 10:06:09;;;;;;;28.33;17.13;;;8.90;99.90;;;;;;5014177;28;20049;-80
2022/03/15 10:08:35;;;;;;;29.08;17.13;;;9.00;99.90;;;;;;5021592;28;20092;-80
2022/03/15 10:11:02;;;;;;;29.85;17.90;;;9.10;99.90;;;;;;5016319;28;20029;-80
2022/03/15 10:13:28;;;;;;;32.22;18.52;;;9.40;99.90;;;;;;5015609;28;20099;-80
2022/03/15 10:15:55;;;;;;;28.02;17.55;;;9.60;99.90;;;;;;5011843;28;20033;-80
2022/03/15 10:18:21;;;;;;;25.25;15.95;;;9.70;99.90;;;;;;5008751;28;20060;-80
2022/03/15 10:20:48;;;;;;;27.00;16.60;;;10.00;99.90;;;;;;5014302;28;20042;-80
2022/03/15 10:23:16;;;;;;;;;;;10.10;99.90;;;;;;5013772;28;20044;-80
2022/03/15 10:25:49;;;;;;;27.00;14.80;;;10.10;99.90;;;;;;5012485;28;20353;-80
2022/03/15 10:28:15;;;;;;;24.92;15.55;;;10.20;99.90;;;;;;5014479;28;20551;-80
2022/03/15 10:30:43;;;;;;;26.65;16.40;;;10.30;99.90;;;;;;5013846;28;20049;-80
2022/03/15 10:33:08;;;;;;;27.65;16.75;;;10.30;99.90;;;;;;5015678;28;20037;-80
2022/03/15 10:35:41;;;;;;;29.55;16.33;;;10.20;99.90;;;;;;5014806;28;20048;-80
2022/03/15 10:38:08;;;;;;;26.70;15.65;;;10.20;99.90;;;;;;4997384;28;20037;-80
2022/03/15 10:40:36;;;;;;;27.48;15.80;;;10.10;99.90;;;;;;4997853;28;20107;-80
2022/03/15 10:43:14;;;;;;;26.75;15.63;;;10.10;99.90;;;;;;4997816;28;20397;-80
2022/03/15 10:45:46;;;;;;;27.65;16.40;;;10.00;99.90;;;;;;5014493;28;20481;-80
2022/03/15 10:48:26;;;;;;;29.02;15.88;;;10.00;99.90;;;;;;5013918;28;20137;-80
2022/03/15 10:51:15;;;;;;;24.38;15.25;;;10.00;99.90;;;;;;5013647;28;20045;-80
2022/03/15 10:53:46;;;;;;;26.60;15.02;;;9.90;99.90;;;;;;5013188;28;20052;-80
2022/03/15 10:56:17;;;;;;;26.35;14.52;;;9.90;99.90;;;;;;5011056;28;20084;-80
2022/03/15 10:58:53;;;;;;;29.13;14.35;;;9.90;99.90;;;;;;5021511;28;20042;-80
2022/03/15 11:01:21;;;;;;;31.77;15.43;;;10.00;99.90;;;;;;5014923;28;20489;-80
2022/03/15 11:03:58;;;;;;;25.85;15.63;;;9.90;99.90;;;;;;4994565;28;20038;-80
2022/03/15 11:06:43;;;;;;;26.13;15.88;;;9.80;99.90;;;;;;5014987;28;20048;-80
2022/03/15 11:09:20;;;;;;;29.50;17.67;;;9.80;99.90;;;;;;5014798;28;20525;-80
2022/03/15 11:12:06;;;;;;;29.00;16.87;;;9.80;99.90;;;;;;5014148;28;20045;-80
2022/03/15 11:14:41;;;;;;;29.40;18.02;;;9.80;99.90;;;;;;5016181;28;20307;-80
2022/03/15 11:17:16;;;;;;;28.60;17.98;;;9.80;99.90;;;;;;5030338;28;20034;-80
2022/03/15 11:19:54;;;;;;;32.05;19.60;;;9.70;99.90;;;;;;5014177;28;20468;-80
2022/03/15 11:22:30;;;;;;;29.55;17.83;;;9.70;99.90;;;;;;4998166;28;20057;-80
2022/03/15 11:25:02;;;;;;;34.50;18.80;;;9.70;99.90;;;;;;5001045;28;20045;-80
2022/03/15 11:27:32;;;;;;;36.53;20.02;;;9.60;99.90;;;;;;5017305;28;20048;-80
2022/03/15 11:30:02;;;;;;;30.63;18.25;;;9.60;99.90;;;;;;5016727;28;20038;-80
2022/03/15 11:32:33;;;;;;;28.75;18.45;;;9.60;99.90;;;;;;5012957;28;20056;-80
2022/03/15 11:34:59;;;;;;;32.47;18.77;;;9.60;99.90;;;;;;5026690;28;20046;-80
2022/03/15 11:37:25;;;;;;;33.80;18.67;;;9.60;99.90;;;;;;5021947;28;20041;-80
2022/03/15 11:39:53;;;;;;;32.40;18.65;;;9.60;99.90;;;;;;5001315;28;20041;-80
2022/03/15 11:42:19;;;;;;;33.80;19.15;;;9.60;99.90;;;;;;5016325;28;20087;-79
2022/03/15 11:44:55;;;;;;;36.10;18.67;;;9.60;99.90;;;;;;5017048;28;20574;-79
2022/03/15 11:47:52;;;;;;;32.97;19.10;;;9.60;99.90;;;;;;5016778;28;20045;-79
2022/03/15 11:50:49;;;;;;;34.05;19.23;;;9.60;99.90;;;;;;5008401;28;20068;-79
2022/03/15 11:53:31;;;;;;;32.10;17.93;;;9.60;99.90;;;;;;5013661;28;20501;-80
2022/03/15 11:56:10;;;;;;;27.88;16.67;;;9.60;99.90;;;;;;5013629;28;20045;-79
2022/03/15 11:58:36;;;;;;;26.00;16.05;;;9.60;99.90;;;;;;4995088;28;20049;-79
2022/03/15 12:01:10;;;;;;;28.88;15.77;;;9.70;99.90;;;;;;5016756;28;20116;-79
2022/03/15 12:03:47;;;;;;;26.05;15.88;;;9.80;99.90;;;;;;5010310;28;20079;-79
2022/03/15 12:06:24;;;;;;;30.20;16.45;;;9.70;99.90;;;;;;5014093;28;20053;-79
2022/03/15 12:08:56;;;;;;;29.25;17.17;;;9.80;99.90;;;;;;5013111;28;20034;-80
2022/03/15 12:11:39;;;;;;;32.78;18.60;;;9.70;99.90;;;;;;5015637;28;20045;-79
2022/03/15 12:14:18;;;;;;;27.55;17.15;;;9.90;99.90;;;;;;5012869;28;20493;-79
2022/03/15 12:16:53;;;;;;;28.98;17.00;;;10.00;99.90;;;;;;5008258;28;20059;-79
2022/03/15 12:21:55;;;;;;;26.52;15.95;;;10.20;99.90;;;;;;4997881;28;20092;-79
2022/03/15 12:24:45;;;;;;;28.90;17.13;;;10.40;99.90;;;;;;4988045;28;20041;-79
2022/03/15 12:27:22;;;;;;;33.70;16.17;;;10.50;99.90;;;;;;5019429;28;20041;-79
2022/03/15 12:29:59;;;;;;;24.95;14.68;;;10.60;99.90;;;;;;5030619;28;20072;-80
2022/03/15 12:32:26;;;;;;;23.30;15.20;;;10.60;99.90;;;;;;5014125;28;20131;-80
2022/03/15 12:34:57;;;;;;;25.73;14.98;;;10.70;99.90;;;;;;5014324;28;20073;-79
2022/03/15 12:37:36;;;;;;;20.17;13.43;;;10.70;99.90;;;;;;5014837;28;20045;-79
2022/03/15 12:40:05;;;;;;;22.08;12.55;;;10.80;99.90;;;;;;5014810;28;20049;-79
2022/03/15 12:42:32;;;;;;;20.45;12.93;;;10.90;99.90;;;;;;5014874;28;20140;-80
2022/03/15 12:45:04;;;;;;;21.85;12.98;;;10.90;99.90;;;;;;5015538;28;20041;-80
2022/03/15 12:47:31;;;;;;;20.35;13.32;;;10.90;99.90;;;;;;5020105;28;20037;-79